sensor_id;sensor_type;location;lat;lon;timestamp;P1;durP1;ratioP1;P2;durP2;ratioP2
64598;SDS011;51008;51.504;11.548;2023-06-14T00:04:36;6.13;;;3.05;;
64598;SDS011;51008;51.504;11.548;2023-06-14T00:09:37;8.45;;;2.72;;
64598;SDS011;51008;51.504;11.548;2023-06-14T00:14:38;5.70;;;3.15;;
64598;SDS011;51008;51.504;11.548;2023-06-14T00:19:39;6.50;;;3.40;;
64598;SDS011;51008;51.504;11.548;2023-06-14T00:24:40;6.80;;;3.72;;
64598;SDS011;51008;51.504;11.548;2023-06-14T00:29:41;8.50;;;4.03;;
64598;SDS011;51008;51.504;11.548;2023-06-14T00:34:42;10.70;;;4.50;;
64598;SDS011;51008;51.504;11.548;2023-06-14T00:39:43;19.40;;;6.63;;
64598;SDS011;51008;51.504;11.548;2023-06-14T00:44:45;32.80;;;10.82;;
64598;SDS011;51008;51.504;11.548;2023-06-14T00:49:49;30.45;;;10.15;;
64598;SDS011;51008;51.504;11.548;2023-06-14T00:54:52;29.83;;;10.25;;
64598;SDS011;51008;51.504;11.548;2023-06-14T00:59:53;27.17;;;10.05;;
64598;SDS011;51008;51.504;11.548;2023-06-14T01:04:54;18.73;;;7.40;;
64598;SDS011;51008;51.504;11.548;2023-06-14T01:15:19;14.70;;;6.57;;
64598;SDS011;51008;51.504;11.548;2023-06-14T01:20:21;16.50;;;5.95;;
64598;SDS011;51008;51.504;11.548;2023-06-14T01:25:23;11.07;;;4.95;;
64598;SDS011;51008;51.504;11.548;2023-06-14T01:30:24;7.80;;;3.80;;
64598;SDS011;51008;51.504;11.548;2023-06-14T01:35:26;16.10;;;5.00;;
64598;SDS011;51008;51.504;11.548;2023-06-14T01:40:29;8.43;;;4.13;;
64598;SDS011;51008;51.504;11.548;2023-06-14T01:45:32;5.10;;;3.10;;
64598;SDS011;51008;51.504;11.548;2023-06-14T01:50:34;5.97;;;3.40;;
64598;SDS011;51008;51.504;11.548;2023-06-14T01:55:35;7.45;;;3.92;;
64598;SDS011;51008;51.504;11.548;2023-06-14T02:00:36;5.60;;;3.63;;
64598;SDS011;51008;51.504;11.548;2023-06-14T02:05:37;9.23;;;4.70;;
64598;SDS011;51008;51.504;11.548;2023-06-14T02:10:39;5.40;;;2.85;;
64598;SDS011;51008;51.504;11.548;2023-06-14T02:15:40;5.65;;;3.45;;
64598;SDS011;51008;51.504;11.548;2023-06-14T02:20:41;6.97;;;3.80;;
64598;SDS011;51008;51.504;11.548;2023-06-14T02:25:42;6.22;;;3.50;;
64598;SDS011;51008;51.504;11.548;2023-06-14T02:30:43;12.75;;;5.10;;
64598;SDS011;51008;51.504;11.548;2023-06-14T02:35:45;12.88;;;5.15;;
64598;SDS011;51008;51.504;11.548;2023-06-14T02:40:46;12.88;;;4.88;;
64598;SDS011;51008;51.504;11.548;2023-06-14T02:45:47;13.60;;;5.60;;
64598;SDS011;51008;51.504;11.548;2023-06-14T02:50:48;10.13;;;4.72;;
64598;SDS011;51008;51.504;11.548;2023-06-14T02:55:49;8.52;;;4.13;;
64598;SDS011;51008;51.504;11.548;2023-06-14T03:00:51;12.88;;;4.90;;
64598;SDS011;51008;51.504;11.548;2023-06-14T03:05:52;11.85;;;4.25;;
64598;SDS011;51008;51.504;11.548;2023-06-14T03:10:58;7.40;;;3.55;;
64598;SDS011;51008;51.504;11.548;2023-06-14T03:16:00;9.57;;;3.88;;
64598;SDS011;51008;51.504;11.548;2023-06-14T03:21:02;7.38;;;3.53;;
64598;SDS011;51008;51.504;11.548;2023-06-14T03:26:05;8.07;;;3.40;;
64598;SDS011;51008;51.504;11.548;2023-06-14T03:31:07;4.95;;;2.92;;
64598;SDS011;51008;51.504;11.548;2023-06-14T03:36:08;8.50;;;4.30;;
64598;SDS011;51008;51.504;11.548;2023-06-14T03:41:09;9.35;;;3.63;;
64598;SDS011;51008;51.504;11.548;2023-06-14T03:46:11;7.85;;;3.60;;
64598;SDS011;51008;51.504;11.548;2023-06-14T03:51:12;8.10;;;4.00;;
64598;SDS011;51008;51.504;11.548;2023-06-14T03:56:13;8.40;;;4.22;;
64598;SDS011;51008;51.504;11.548;2023-06-14T04:06:18;6.28;;;3.22;;
64598;SDS011;51008;51.504;11.548;2023-06-14T04:11:20;6.43;;;3.40;;
64598;SDS011;51008;51.504;11.548;2023-06-14T04:16:21;6.50;;;3.20;;
64598;SDS011;51008;51.504;11.548;2023-06-14T04:21:22;9.25;;;3.45;;
64598;SDS011;51008;51.504;11.548;2023-06-14T04:26:26;4.65;;;3.47;;
64598;SDS011;51008;51.504;11.548;2023-06-14T04:31:28;6.30;;;3.42;;
64598;SDS011;51008;51.504;11.548;2023-06-14T04:36:29;6.00;;;3.63;;
64598;SDS011;51008;51.504;11.548;2023-06-14T04:41:31;7.50;;;3.97;;
64598;SDS011;51008;51.504;11.548;2023-06-14T04:46:32;9.05;;;4.72;;
64598;SDS011;51008;51.504;11.548;2023-06-14T04:51:33;10.23;;;4.78;;
64598;SDS011;51008;51.504;11.548;2023-06-14T04:56:34;6.78;;;4.50;;
64598;SDS011;51008;51.504;11.548;2023-06-14T05:01:35;10.45;;;5.18;;
64598;SDS011;51008;51.504;11.548;2023-06-14T05:06:37;9.75;;;4.78;;
64598;SDS011;51008;51.504;11.548;2023-06-14T05:11:38;15.95;;;4.43;;
64598;SDS011;51008;51.504;11.548;2023-06-14T05:16:39;9.43;;;4.78;;
64598;SDS011;51008;51.504;11.548;2023-06-14T05:21:41;9.82;;;4.88;;
64598;SDS011;51008;51.504;11.548;2023-06-14T05:26:42;7.85;;;4.70;;
64598;SDS011;51008;51.504;11.548;2023-06-14T05:31:43;7.00;;;4.78;;
64598;SDS011;51008;51.504;11.548;2023-06-14T05:36:44;8.60;;;5.05;;
64598;SDS011;51008;51.504;11.548;2023-06-14T05:41:45;6.63;;;4.65;;
64598;SDS011;51008;51.504;11.548;2023-06-14T05:46:46;7.70;;;4.68;;
64598;SDS011;51008;51.504;11.548;2023-06-14T05:51:47;10.52;;;5.93;;
64598;SDS011;51008;51.504;11.548;2023-06-14T05:56:48;11.65;;;5.93;;
64598;SDS011;51008;51.504;11.548;2023-06-14T06:01:49;11.80;;;5.75;;
64598;SDS011;51008;51.504;11.548;2023-06-14T06:06:50;12.02;;;6.15;;
64598;SDS011;51008;51.504;11.548;2023-06-14T06:11:51;10.13;;;5.97;;
64598;SDS011;51008;51.504;11.548;2023-06-14T06:16:53;10.95;;;6.40;;
64598;SDS011;51008;51.504;11.548;2023-06-14T06:21:54;9.95;;;5.78;;
64598;SDS011;51008;51.504;11.548;2023-06-14T06:26:55;10.18;;;6.00;;
64598;SDS011;51008;51.504;11.548;2023-06-14T06:31:56;9.95;;;6.05;;
64598;SDS011;51008;51.504;11.548;2023-06-14T06:36:58;12.05;;;6.47;;
64598;SDS011;51008;51.504;11.548;2023-06-14T06:41:59;11.77;;;6.60;;
64598;SDS011;51008;51.504;11.548;2023-06-14T06:47:07;14.70;;;6.50;;
64598;SDS011;51008;51.504;11.548;2023-06-14T06:52:08;10.52;;;6.10;;
64598;SDS011;51008;51.504;11.548;2023-06-14T06:57:09;11.13;;;6.68;;
64598;SDS011;51008;51.504;11.548;2023-06-14T07:02:10;9.30;;;6.63;;
64598;SDS011;51008;51.504;11.548;2023-06-14T07:07:12;13.02;;;6.32;;
64598;SDS011;51008;51.504;11.548;2023-06-14T07:12:13;15.50;;;6.05;;
64598;SDS011;51008;51.504;11.548;2023-06-14T07:17:14;9.48;;;5.80;;
64598;SDS011;51008;51.504;11.548;2023-06-14T07:22:15;8.68;;;5.43;;
64598;SDS011;51008;51.504;11.548;2023-06-14T07:27:16;9.18;;;6.32;;
64598;SDS011;51008;51.504;11.548;2023-06-14T07:32:17;8.15;;;5.78;;
64598;SDS011;51008;51.504;11.548;2023-06-14T07:37:18;21.60;;;6.60;;
64598;SDS011;51008;51.504;11.548;2023-06-14T07:42:19;8.60;;;6.10;;
64598;SDS011;51008;51.504;11.548;2023-06-14T07:47:20;8.40;;;5.50;;
64598;SDS011;51008;51.504;11.548;2023-06-14T07:52:21;12.63;;;5.97;;
64598;SDS011;51008;51.504;11.548;2023-06-14T07:57:23;13.63;;;6.38;;
64598;SDS011;51008;51.504;11.548;2023-06-14T08:02:24;10.77;;;7.28;;
64598;SDS011;51008;51.504;11.548;2023-06-14T08:07:25;10.95;;;6.93;;
64598;SDS011;51008;51.504;11.548;2023-06-14T08:12:26;8.80;;;5.22;;
64598;SDS011;51008;51.504;11.548;2023-06-14T08:17:27;9.23;;;5.35;;
64598;SDS011;51008;51.504;11.548;2023-06-14T08:22:28;8.00;;;5.35;;
64598;SDS011;51008;51.504;11.548;2023-06-14T08:27:30;8.88;;;4.53;;
64598;SDS011;51008;51.504;11.548;2023-06-14T08:32:31;8.27;;;5.03;;
64598;SDS011;51008;51.504;11.548;2023-06-14T08:37:32;8.05;;;4.85;;
64598;SDS011;51008;51.504;11.548;2023-06-14T08:42:33;11.35;;;5.00;;
64598;SDS011;51008;51.504;11.548;2023-06-14T08:47:36;12.25;;;5.35;;
64598;SDS011;51008;51.504;11.548;2023-06-14T08:52:38;8.77;;;4.97;;
64598;SDS011;51008;51.504;11.548;2023-06-14T08:57:41;8.38;;;4.63;;
64598;SDS011;51008;51.504;11.548;2023-06-14T09:02:43;8.50;;;4.65;;
64598;SDS011;51008;51.504;11.548;2023-06-14T09:07:44;9.63;;;4.55;;
64598;SDS011;51008;51.504;11.548;2023-06-14T09:12:45;9.07;;;4.75;;
64598;SDS011;51008;51.504;11.548;2023-06-14T09:17:46;6.57;;;4.47;;
64598;SDS011;51008;51.504;11.548;2023-06-14T09:22:48;10.40;;;4.90;;
64598;SDS011;51008;51.504;11.548;2023-06-14T09:27:51;7.43;;;4.65;;
64598;SDS011;51008;51.504;11.548;2023-06-14T09:32:52;10.48;;;3.88;;
64598;SDS011;51008;51.504;11.548;2023-06-14T09:37:53;6.80;;;3.97;;
64598;SDS011;51008;51.504;11.548;2023-06-14T09:42:56;8.50;;;3.40;;
64598;SDS011;51008;51.504;11.548;2023-06-14T09:47:58;7.97;;;3.40;;
64598;SDS011;51008;51.504;11.548;2023-06-14T09:53:03;9.10;;;3.95;;
64598;SDS011;51008;51.504;11.548;2023-06-14T09:58:08;11.15;;;4.20;;
64598;SDS011;51008;51.504;11.548;2023-06-14T10:03:12;7.65;;;4.18;;
64598;SDS011;51008;51.504;11.548;2023-06-14T10:08:15;7.47;;;4.60;;
64598;SDS011;51008;51.504;11.548;2023-06-14T10:13:18;9.25;;;4.22;;
64598;SDS011;51008;51.504;11.548;2023-06-14T10:23:52;7.07;;;4.05;;
64598;SDS011;51008;51.504;11.548;2023-06-14T10:28:56;8.38;;;3.88;;
64598;SDS011;51008;51.504;11.548;2023-06-14T10:33:59;7.20;;;3.83;;
64598;SDS011;51008;51.504;11.548;2023-06-14T10:49:18;5.78;;;3.75;;
64598;SDS011;51008;51.504;11.548;2023-06-14T10:54:20;6.32;;;3.08;;
64598;SDS011;51008;51.504;11.548;2023-06-14T10:59:21;7.90;;;3.28;;
64598;SDS011;51008;51.504;11.548;2023-06-14T11:04:22;7.45;;;3.10;;
64598;SDS011;51008;51.504;11.548;2023-06-14T11:10:18;5.30;;;2.80;;
64598;SDS011;51008;51.504;11.548;2023-06-14T11:20:20;8.07;;;3.63;;
64598;SDS011;51008;51.504;11.548;2023-06-14T11:25:21;9.40;;;5.50;;
64598;SDS011;51008;51.504;11.548;2023-06-14T11:30:22;7.70;;;3.75;;
64598;SDS011;51008;51.504;11.548;2023-06-14T11:35:24;9.25;;;4.15;;
64598;SDS011;51008;51.504;11.548;2023-06-14T11:40:27;6.18;;;3.80;;
64598;SDS011;51008;51.504;11.548;2023-06-14T11:45:29;5.18;;;3.30;;
64598;SDS011;51008;51.504;11.548;2023-06-14T11:50:30;7.63;;;3.85;;
64598;SDS011;51008;51.504;11.548;2023-06-14T11:55:32;5.00;;;3.22;;
64598;SDS011;51008;51.504;11.548;2023-06-14T12:00:36;12.05;;;3.58;;
64598;SDS011;51008;51.504;11.548;2023-06-14T12:05:37;5.50;;;3.60;;
64598;SDS011;51008;51.504;11.548;2023-06-14T12:10:39;5.35;;;3.38;;
64598;SDS011;51008;51.504;11.548;2023-06-14T12:15:41;8.35;;;3.78;;
64598;SDS011;51008;51.504;11.548;2023-06-14T12:20:42;6.30;;;3.90;;
64598;SDS011;51008;51.504;11.548;2023-06-14T12:25:43;5.50;;;3.90;;
64598;SDS011;51008;51.504;11.548;2023-06-14T12:30:44;6.22;;;3.70;;
64598;SDS011;51008;51.504;11.548;2023-06-14T12:35:45;7.05;;;3.92;;
64598;SDS011;51008;51.504;11.548;2023-06-14T12:40:47;7.35;;;3.78;;
64598;SDS011;51008;51.504;11.548;2023-06-14T12:45:48;5.78;;;4.10;;
64598;SDS011;51008;51.504;11.548;2023-06-14T12:50:49;7.13;;;4.15;;
64598;SDS011;51008;51.504;11.548;2023-06-14T12:55:50;9.50;;;4.45;;
64598;SDS011;51008;51.504;11.548;2023-06-14T13:00:51;7.47;;;3.95;;
64598;SDS011;51008;51.504;11.548;2023-06-14T13:05:52;10.85;;;4.55;;
64598;SDS011;51008;51.504;11.548;2023-06-14T13:10:53;11.25;;;5.20;;
64598;SDS011;51008;51.504;11.548;2023-06-14T13:15:55;8.88;;;4.65;;
64598;SDS011;51008;51.504;11.548;2023-06-14T13:20:56;6.97;;;4.38;;
64598;SDS011;51008;51.504;11.548;2023-06-14T13:25:57;9.82;;;4.40;;
64598;SDS011;51008;51.504;11.548;2023-06-14T13:30:58;8.35;;;4.38;;
64598;SDS011;51008;51.504;11.548;2023-06-14T13:35:59;8.63;;;4.25;;
64598;SDS011;51008;51.504;11.548;2023-06-14T13:41:00;6.93;;;4.15;;
64598;SDS011;51008;51.504;11.548;2023-06-14T13:46:01;12.02;;;4.15;;
64598;SDS011;51008;51.504;11.548;2023-06-14T13:51:02;10.75;;;4.30;;
64598;SDS011;51008;51.504;11.548;2023-06-14T13:56:03;5.90;;;3.58;;
64598;SDS011;51008;51.504;11.548;2023-06-14T14:01:04;10.35;;;4.28;;
64598;SDS011;51008;51.504;11.548;2023-06-14T14:06:05;7.85;;;4.30;;
64598;SDS011;51008;51.504;11.548;2023-06-14T14:11:07;8.43;;;4.18;;
64598;SDS011;51008;51.504;11.548;2023-06-14T14:16:08;7.28;;;4.20;;
64598;SDS011;51008;51.504;11.548;2023-06-14T14:21:09;9.38;;;4.15;;
64598;SDS011;51008;51.504;11.548;2023-06-14T14:26:10;14.32;;;4.50;;
64598;SDS011;51008;51.504;11.548;2023-06-14T14:31:11;16.55;;;5.60;;
64598;SDS011;51008;51.504;11.548;2023-06-14T14:36:12;8.25;;;4.50;;
64598;SDS011;51008;51.504;11.548;2023-06-14T14:41:13;7.70;;;4.47;;
64598;SDS011;51008;51.504;11.548;2023-06-14T14:46:14;12.43;;;5.05;;
64598;SDS011;51008;51.504;11.548;2023-06-14T14:51:15;10.10;;;4.57;;
64598;SDS011;51008;51.504;11.548;2023-06-14T14:56:16;8.82;;;4.70;;
64598;SDS011;51008;51.504;11.548;2023-06-14T15:01:18;8.20;;;4.22;;
64598;SDS011;51008;51.504;11.548;2023-06-14T15:06:19;7.93;;;4.00;;
64598;SDS011;51008;51.504;11.548;2023-06-14T15:11:20;5.93;;;3.95;;
64598;SDS011;51008;51.504;11.548;2023-06-14T15:16:21;9.60;;;4.60;;
64598;SDS011;51008;51.504;11.548;2023-06-14T15:21:22;10.15;;;4.35;;
64598;SDS011;51008;51.504;11.548;2023-06-14T15:26:23;9.88;;;4.50;;
64598;SDS011;51008;51.504;11.548;2023-06-14T15:31:24;8.23;;;4.60;;
64598;SDS011;51008;51.504;11.548;2023-06-14T15:36:25;7.30;;;3.83;;
64598;SDS011;51008;51.504;11.548;2023-06-14T15:41:26;7.15;;;4.03;;
64598;SDS011;51008;51.504;11.548;2023-06-14T15:46:27;10.32;;;4.20;;
64598;SDS011;51008;51.504;11.548;2023-06-14T15:51:28;12.55;;;4.22;;
64598;SDS011;51008;51.504;11.548;2023-06-14T15:56:29;7.50;;;4.20;;
64598;SDS011;51008;51.504;11.548;2023-06-14T16:01:30;7.97;;;3.90;;
64598;SDS011;51008;51.504;11.548;2023-06-14T16:06:32;13.93;;;4.10;;
64598;SDS011;51008;51.504;11.548;2023-06-14T16:11:33;9.52;;;4.28;;
64598;SDS011;51008;51.504;11.548;2023-06-14T16:16:34;10.60;;;4.40;;
64598;SDS011;51008;51.504;11.548;2023-06-14T16:21:35;11.70;;;4.63;;
64598;SDS011;51008;51.504;11.548;2023-06-14T16:26:36;9.27;;;4.40;;
64598;SDS011;51008;51.504;11.548;2023-06-14T16:31:37;8.43;;;4.38;;
64598;SDS011;51008;51.504;11.548;2023-06-14T16:36:38;9.88;;;4.70;;
64598;SDS011;51008;51.504;11.548;2023-06-14T16:41:39;10.38;;;5.05;;
64598;SDS011;51008;51.504;11.548;2023-06-14T16:46:40;7.28;;;4.35;;
64598;SDS011;51008;51.504;11.548;2023-06-14T16:51:41;11.32;;;4.43;;
64598;SDS011;51008;51.504;11.548;2023-06-14T16:56:42;8.93;;;4.50;;
64598;SDS011;51008;51.504;11.548;2023-06-14T17:01:43;10.18;;;4.78;;
64598;SDS011;51008;51.504;11.548;2023-06-14T17:06:45;7.13;;;4.18;;
64598;SDS011;51008;51.504;11.548;2023-06-14T17:11:46;7.63;;;4.22;;
64598;SDS011;51008;51.504;11.548;2023-06-14T17:16:47;5.38;;;4.03;;
64598;SDS011;51008;51.504;11.548;2023-06-14T17:21:48;15.45;;;4.60;;
64598;SDS011;51008;51.504;11.548;2023-06-14T17:26:49;6.10;;;4.00;;
64598;SDS011;51008;51.504;11.548;2023-06-14T17:31:50;8.45;;;4.38;;
64598;SDS011;51008;51.504;11.548;2023-06-14T17:36:51;7.18;;;3.90;;
64598;SDS011;51008;51.504;11.548;2023-06-14T17:41:52;10.63;;;4.70;;
64598;SDS011;51008;51.504;11.548;2023-06-14T17:46:53;8.00;;;4.38;;
64598;SDS011;51008;51.504;11.548;2023-06-14T17:51:54;8.23;;;4.18;;
64598;SDS011;51008;51.504;11.548;2023-06-14T17:56:55;6.43;;;4.40;;
64598;SDS011;51008;51.504;11.548;2023-06-14T18:01:57;9.48;;;4.07;;
64598;SDS011;51008;51.504;11.548;2023-06-14T18:06:58;6.85;;;4.18;;
64598;SDS011;51008;51.504;11.548;2023-06-14T18:11:59;11.98;;;4.75;;
64598;SDS011;51008;51.504;11.548;2023-06-14T18:17:00;8.40;;;4.10;;
64598;SDS011;51008;51.504;11.548;2023-06-14T18:22:02;7.85;;;4.03;;
64598;SDS011;51008;51.504;11.548;2023-06-14T18:27:03;9.05;;;3.78;;
64598;SDS011;51008;51.504;11.548;2023-06-14T18:32:05;6.55;;;4.03;;
64598;SDS011;51008;51.504;11.548;2023-06-14T18:37:06;9.48;;;3.60;;
64598;SDS011;51008;51.504;11.548;2023-06-14T18:42:07;9.43;;;4.10;;
64598;SDS011;51008;51.504;11.548;2023-06-14T18:47:09;13.30;;;4.40;;
64598;SDS011;51008;51.504;11.548;2023-06-14T18:52:10;11.20;;;4.72;;
64598;SDS011;51008;51.504;11.548;2023-06-14T18:57:11;6.25;;;4.20;;
64598;SDS011;51008;51.504;11.548;2023-06-14T19:02:12;6.15;;;3.80;;
64598;SDS011;51008;51.504;11.548;2023-06-14T19:07:14;9.32;;;4.00;;
64598;SDS011;51008;51.504;11.548;2023-06-14T19:12:15;6.32;;;4.15;;
64598;SDS011;51008;51.504;11.548;2023-06-14T19:17:16;7.53;;;4.03;;
64598;SDS011;51008;51.504;11.548;2023-06-14T19:22:17;7.68;;;4.18;;
64598;SDS011;51008;51.504;11.548;2023-06-14T19:27:18;8.45;;;4.28;;
64598;SDS011;51008;51.504;11.548;2023-06-14T19:32:19;9.15;;;4.13;;
64598;SDS011;51008;51.504;11.548;2023-06-14T19:37:20;7.97;;;4.53;;
64598;SDS011;51008;51.504;11.548;2023-06-14T19:42:22;21.70;;;4.70;;
64598;SDS011;51008;51.504;11.548;2023-06-14T19:47:24;10.13;;;4.47;;
64598;SDS011;51008;51.504;11.548;2023-06-14T19:52:25;7.47;;;3.83;;
64598;SDS011;51008;51.504;11.548;2023-06-14T19:57:26;8.23;;;4.10;;
64598;SDS011;51008;51.504;11.548;2023-06-14T20:02:28;8.18;;;4.50;;
64598;SDS011;51008;51.504;11.548;2023-06-14T20:07:29;11.38;;;4.53;;
64598;SDS011;51008;51.504;11.548;2023-06-14T20:12:31;6.78;;;4.40;;
64598;SDS011;51008;51.504;11.548;2023-06-14T20:17:32;12.35;;;4.60;;
64598;SDS011;51008;51.504;11.548;2023-06-14T20:22:33;11.50;;;4.43;;
64598;SDS011;51008;51.504;11.548;2023-06-14T20:27:35;11.32;;;4.50;;
64598;SDS011;51008;51.504;11.548;2023-06-14T20:32:37;7.25;;;4.32;;
64598;SDS011;51008;51.504;11.548;2023-06-14T20:37:38;8.50;;;4.05;;
64598;SDS011;51008;51.504;11.548;2023-06-14T20:42:39;11.32;;;4.47;;
64598;SDS011;51008;51.504;11.548;2023-06-14T20:47:41;10.00;;;5.32;;
64598;SDS011;51008;51.504;11.548;2023-06-14T20:52:42;10.02;;;4.53;;
64598;SDS011;51008;51.504;11.548;2023-06-14T20:57:44;5.95;;;4.20;;
64598;SDS011;51008;51.504;11.548;2023-06-14T21:02:45;7.38;;;4.20;;
64598;SDS011;51008;51.504;11.548;2023-06-14T21:07:46;9.32;;;5.15;;
64598;SDS011;51008;51.504;11.548;2023-06-14T21:12:47;11.20;;;5.20;;
64598;SDS011;51008;51.504;11.548;2023-06-14T21:17:48;7.32;;;4.70;;
64598;SDS011;51008;51.504;11.548;2023-06-14T21:22:50;9.23;;;4.47;;
64598;SDS011;51008;51.504;11.548;2023-06-14T21:27:51;9.52;;;4.60;;
64598;SDS011;51008;51.504;11.548;2023-06-14T21:32:52;8.48;;;4.57;;
64598;SDS011;51008;51.504;11.548;2023-06-14T21:37:53;8.27;;;4.57;;
64598;SDS011;51008;51.504;11.548;2023-06-14T21:42:54;8.73;;;4.53;;
64598;SDS011;51008;51.504;11.548;2023-06-14T21:47:55;9.10;;;4.47;;
64598;SDS011;51008;51.504;11.548;2023-06-14T21:52:57;12.27;;;4.93;;
64598;SDS011;51008;51.504;11.548;2023-06-14T21:57:58;10.02;;;4.85;;
64598;SDS011;51008;51.504;11.548;2023-06-14T22:02:59;11.98;;;5.40;;
64598;SDS011;51008;51.504;11.548;2023-06-14T22:08:00;11.30;;;4.45;;
64598;SDS011;51008;51.504;11.548;2023-06-14T22:13:01;7.15;;;5.13;;
64598;SDS011;51008;51.504;11.548;2023-06-14T22:18:02;8.88;;;4.60;;
64598;SDS011;51008;51.504;11.548;2023-06-14T22:23:04;9.48;;;5.32;;
64598;SDS011;51008;51.504;11.548;2023-06-14T22:28:05;12.32;;;5.35;;
64598;SDS011;51008;51.504;11.548;2023-06-14T22:33:06;8.77;;;4.65;;
64598;SDS011;51008;51.504;11.548;2023-06-14T22:38:07;12.38;;;4.22;;
64598;SDS011;51008;51.504;11.548;2023-06-14T22:43:08;12.10;;;5.03;;
64598;SDS011;51008;51.504;11.548;2023-06-14T22:48:09;7.95;;;5.00;;
64598;SDS011;51008;51.504;11.548;2023-06-14T22:53:10;10.35;;;4.95;;
64598;SDS011;51008;51.504;11.548;2023-06-14T22:58:11;11.52;;;5.32;;
64598;SDS011;51008;51.504;11.548;2023-06-14T23:03:12;8.55;;;5.03;;
64598;SDS011;51008;51.504;11.548;2023-06-14T23:08:13;12.10;;;5.35;;
64598;SDS011;51008;51.504;11.548;2023-06-14T23:13:14;8.63;;;4.80;;
64598;SDS011;51008;51.504;11.548;2023-06-14T23:18:16;10.73;;;5.43;;
64598;SDS011;51008;51.504;11.548;2023-06-14T23:23:17;13.93;;;5.35;;
64598;SDS011;51008;51.504;11.548;2023-06-14T23:28:18;10.25;;;5.22;;
64598;SDS011;51008;51.504;11.548;2023-06-14T23:33:19;11.65;;;4.82;;
64598;SDS011;51008;51.504;11.548;2023-06-14T23:38:20;9.65;;;4.68;;
64598;SDS011;51008;51.504;11.548;2023-06-14T23:43:21;8.15;;;5.05;;
64598;SDS011;51008;51.504;11.548;2023-06-14T23:48:22;8.45;;;5.05;;
64598;SDS011;51008;51.504;11.548;2023-06-14T23:53:24;14.48;;;5.28;;
64598;SDS011;51008;51.504;11.548;2023-06-14T23:58:25;14.40;;;5.00;;
